sensor_id;sensor_type;location;lat;lon;timestamp;P1;durP1;ratioP1;P2;durP2;ratioP2
62798;SDS011;48842;51.046;13.796;2022-07-24T00:01:34;18.50;;;16.47;;
62798;SDS011;48842;51.046;13.796;2022-07-24T00:04:00;19.10;;;17.17;;
62798;SDS011;48842;51.046;13.796;2022-07-24T00:06:25;20.80;;;16.47;;
62798;SDS011;48842;51.046;13.796;2022-07-24T00:08:50;16.20;;;14.60;;
62798;SDS011;48842;51.046;13.796;2022-07-24T00:11:16;17.90;;;15.07;;
62798;SDS011;48842;51.046;13.796;2022-07-24T00:13:41;15.57;;;14.00;;
62798;SDS011;48842;51.046;13.796;2022-07-24T00:16:07;16.20;;;14.50;;
62798;SDS011;48842;51.046;13.796;2022-07-24T00:18:33;15.87;;;14.40;;
62798;SDS011;48842;51.046;13.796;2022-07-24T00:20:58;15.07;;;13.57;;
62798;SDS011;48842;51.046;13.796;2022-07-24T00:23:24;16.63;;;13.90;;
62798;SDS011;48842;51.046;13.796;2022-07-24T00:25:49;14.80;;;13.30;;
62798;SDS011;48842;51.046;13.796;2022-07-24T00:28:15;14.07;;;12.80;;
62798;SDS011;48842;51.046;13.796;2022-07-24T00:30:40;14.50;;;13.03;;
62798;SDS011;48842;51.046;13.796;2022-07-24T00:33:05;14.33;;;11.97;;
62798;SDS011;48842;51.046;13.796;2022-07-24T00:35:31;12.70;;;11.00;;
62798;SDS011;48842;51.046;13.796;2022-07-24T00:37:57;13.77;;;12.43;;
62798;SDS011;48842;51.046;13.796;2022-07-24T00:40:22;12.77;;;11.50;;
62798;SDS011;48842;51.046;13.796;2022-07-24T00:42:49;12.40;;;11.20;;
62798;SDS011;48842;51.046;13.796;2022-07-24T00:45:14;13.40;;;11.97;;
62798;SDS011;48842;51.046;13.796;2022-07-24T00:47:40;13.10;;;11.90;;
62798;SDS011;48842;51.046;13.796;2022-07-24T00:50:05;12.93;;;11.73;;
62798;SDS011;48842;51.046;13.796;2022-07-24T00:52:31;12.70;;;11.40;;
62798;SDS011;48842;51.046;13.796;2022-07-24T00:54:57;11.67;;;10.47;;
62798;SDS011;48842;51.046;13.796;2022-07-24T00:57:22;12.40;;;11.30;;
62798;SDS011;48842;51.046;13.796;2022-07-24T00:59:47;11.47;;;10.47;;
62798;SDS011;48842;51.046;13.796;2022-07-24T01:02:12;11.40;;;10.50;;
62798;SDS011;48842;51.046;13.796;2022-07-24T01:04:38;12.20;;;10.53;;
62798;SDS011;48842;51.046;13.796;2022-07-24T01:07:04;11.00;;;10.10;;
62798;SDS011;48842;51.046;13.796;2022-07-24T01:09:30;11.17;;;9.90;;
62798;SDS011;48842;51.046;13.796;2022-07-24T01:11:56;10.90;;;9.73;;
62798;SDS011;48842;51.046;13.796;2022-07-24T01:14:22;11.27;;;9.70;;
62798;SDS011;48842;51.046;13.796;2022-07-24T01:16:48;12.40;;;9.90;;
62798;SDS011;48842;51.046;13.796;2022-07-24T01:19:13;10.67;;;9.17;;
62798;SDS011;48842;51.046;13.796;2022-07-24T01:21:39;9.57;;;8.43;;
62798;SDS011;48842;51.046;13.796;2022-07-24T01:24:10;9.50;;;8.70;;
62798;SDS011;48842;51.046;13.796;2022-07-24T01:26:35;9.63;;;8.83;;
62798;SDS011;48842;51.046;13.796;2022-07-24T01:29:01;10.10;;;9.30;;
62798;SDS011;48842;51.046;13.796;2022-07-24T01:31:26;9.50;;;8.60;;
62798;SDS011;48842;51.046;13.796;2022-07-24T01:33:51;9.83;;;9.03;;
62798;SDS011;48842;51.046;13.796;2022-07-24T01:36:16;10.40;;;8.73;;
62798;SDS011;48842;51.046;13.796;2022-07-24T01:38:42;17.20;;;9.27;;
62798;SDS011;48842;51.046;13.796;2022-07-24T01:41:08;9.10;;;8.37;;
62798;SDS011;48842;51.046;13.796;2022-07-24T01:43:33;9.60;;;8.47;;
62798;SDS011;48842;51.046;13.796;2022-07-24T01:45:58;9.37;;;8.47;;
62798;SDS011;48842;51.046;13.796;2022-07-24T01:48:23;9.77;;;8.77;;
62798;SDS011;48842;51.046;13.796;2022-07-24T01:50:49;8.90;;;8.00;;
62798;SDS011;48842;51.046;13.796;2022-07-24T01:53:14;10.10;;;7.93;;
62798;SDS011;48842;51.046;13.796;2022-07-24T01:55:40;8.23;;;7.53;;
62798;SDS011;48842;51.046;13.796;2022-07-24T01:58:05;8.60;;;7.83;;
62798;SDS011;48842;51.046;13.796;2022-07-24T02:00:30;9.20;;;8.30;;
62798;SDS011;48842;51.046;13.796;2022-07-24T02:02:56;10.37;;;8.17;;
62798;SDS011;48842;51.046;13.796;2022-07-24T02:05:21;8.90;;;8.10;;
62798;SDS011;48842;51.046;13.796;2022-07-24T02:07:53;9.87;;;8.87;;
62798;SDS011;48842;51.046;13.796;2022-07-24T02:10:22;10.37;;;9.17;;
62798;SDS011;48842;51.046;13.796;2022-07-24T02:12:48;9.17;;;8.30;;
62798;SDS011;48842;51.046;13.796;2022-07-24T02:15:13;9.47;;;8.57;;
62798;SDS011;48842;51.046;13.796;2022-07-24T02:17:38;9.97;;;8.43;;
62798;SDS011;48842;51.046;13.796;2022-07-24T02:20:04;10.60;;;9.70;;
62798;SDS011;48842;51.046;13.796;2022-07-24T02:22:30;15.13;;;11.73;;
62798;SDS011;48842;51.046;13.796;2022-07-24T02:24:55;13.03;;;11.60;;
62798;SDS011;48842;51.046;13.796;2022-07-24T02:27:20;11.77;;;10.73;;
62798;SDS011;48842;51.046;13.796;2022-07-24T02:29:46;14.73;;;13.10;;
62798;SDS011;48842;51.046;13.796;2022-07-24T02:32:11;19.77;;;13.47;;
62798;SDS011;48842;51.046;13.796;2022-07-24T02:34:36;15.77;;;14.17;;
62798;SDS011;48842;51.046;13.796;2022-07-24T02:37:01;16.03;;;12.97;;
62798;SDS011;48842;51.046;13.796;2022-07-24T02:39:27;16.30;;;13.33;;
62798;SDS011;48842;51.046;13.796;2022-07-24T02:41:52;14.97;;;13.57;;
62798;SDS011;48842;51.046;13.796;2022-07-24T02:44:17;15.07;;;13.43;;
62798;SDS011;48842;51.046;13.796;2022-07-24T02:46:42;15.50;;;13.97;;
62798;SDS011;48842;51.046;13.796;2022-07-24T02:49:08;14.30;;;12.93;;
62798;SDS011;48842;51.046;13.796;2022-07-24T02:51:33;21.70;;;13.50;;
62798;SDS011;48842;51.046;13.796;2022-07-24T02:53:58;17.60;;;13.27;;
62798;SDS011;48842;51.046;13.796;2022-07-24T02:56:23;15.77;;;13.30;;
62798;SDS011;48842;51.046;13.796;2022-07-24T02:58:48;19.80;;;13.83;;
62798;SDS011;48842;51.046;13.796;2022-07-24T03:01:14;14.30;;;12.80;;
62798;SDS011;48842;51.046;13.796;2022-07-24T03:03:39;13.30;;;11.90;;
62798;SDS011;48842;51.046;13.796;2022-07-24T03:06:04;14.40;;;12.90;;
62798;SDS011;48842;51.046;13.796;2022-07-24T03:08:30;15.97;;;13.17;;
62798;SDS011;48842;51.046;13.796;2022-07-24T03:10:55;12.90;;;11.70;;
62798;SDS011;48842;51.046;13.796;2022-07-24T03:13:21;14.03;;;11.43;;
62798;SDS011;48842;51.046;13.796;2022-07-24T03:15:46;15.33;;;11.87;;
62798;SDS011;48842;51.046;13.796;2022-07-24T03:18:11;15.03;;;13.00;;
62798;SDS011;48842;51.046;13.796;2022-07-24T03:20:36;14.77;;;12.00;;
62798;SDS011;48842;51.046;13.796;2022-07-24T03:23:02;15.73;;;11.63;;
62798;SDS011;48842;51.046;13.796;2022-07-24T03:25:27;12.53;;;11.43;;
62798;SDS011;48842;51.046;13.796;2022-07-24T03:27:52;15.03;;;12.07;;
62798;SDS011;48842;51.046;13.796;2022-07-24T03:30:18;12.90;;;11.70;;
62798;SDS011;48842;51.046;13.796;2022-07-24T03:32:44;13.43;;;12.10;;
62798;SDS011;48842;51.046;13.796;2022-07-24T03:35:10;14.17;;;12.20;;
62798;SDS011;48842;51.046;13.796;2022-07-24T03:37:35;15.60;;;11.17;;
62798;SDS011;48842;51.046;13.796;2022-07-24T03:40:01;13.57;;;12.27;;
62798;SDS011;48842;51.046;13.796;2022-07-24T03:42:27;16.30;;;11.60;;
62798;SDS011;48842;51.046;13.796;2022-07-24T03:44:52;13.30;;;11.90;;
62798;SDS011;48842;51.046;13.796;2022-07-24T03:47:18;12.33;;;11.10;;
62798;SDS011;48842;51.046;13.796;2022-07-24T03:49:43;13.20;;;11.33;;
62798;SDS011;48842;51.046;13.796;2022-07-24T03:52:08;15.27;;;11.00;;
62798;SDS011;48842;51.046;13.796;2022-07-24T03:54:34;13.27;;;11.87;;
62798;SDS011;48842;51.046;13.796;2022-07-24T03:56:59;13.90;;;12.50;;
62798;SDS011;48842;51.046;13.796;2022-07-24T03:59:24;13.07;;;11.87;;
62798;SDS011;48842;51.046;13.796;2022-07-24T04:01:49;12.10;;;10.80;;
62798;SDS011;48842;51.046;13.796;2022-07-24T04:04:15;12.83;;;11.57;;
62798;SDS011;48842;51.046;13.796;2022-07-24T04:06:40;12.80;;;11.43;;
62798;SDS011;48842;51.046;13.796;2022-07-24T04:09:06;16.70;;;11.03;;
62798;SDS011;48842;51.046;13.796;2022-07-24T04:11:32;11.77;;;10.77;;
62798;SDS011;48842;51.046;13.796;2022-07-24T04:13:58;12.37;;;11.20;;
62798;SDS011;48842;51.046;13.796;2022-07-24T04:16:23;18.43;;;10.93;;
62798;SDS011;48842;51.046;13.796;2022-07-24T04:18:49;12.17;;;10.90;;
62798;SDS011;48842;51.046;13.796;2022-07-24T04:21:15;12.13;;;11.03;;
62798;SDS011;48842;51.046;13.796;2022-07-24T04:23:40;11.70;;;10.50;;
62798;SDS011;48842;51.046;13.796;2022-07-24T04:26:05;12.53;;;11.23;;
62798;SDS011;48842;51.046;13.796;2022-07-24T04:28:31;12.30;;;11.10;;
62798;SDS011;48842;51.046;13.796;2022-07-24T04:30:56;12.30;;;11.10;;
62798;SDS011;48842;51.046;13.796;2022-07-24T04:33:21;11.27;;;10.17;;
62798;SDS011;48842;51.046;13.796;2022-07-24T04:35:46;12.50;;;11.30;;
62798;SDS011;48842;51.046;13.796;2022-07-24T04:38:12;12.33;;;11.13;;
62798;SDS011;48842;51.046;13.796;2022-07-24T04:40:38;11.00;;;10.00;;
62798;SDS011;48842;51.046;13.796;2022-07-24T04:43:03;11.40;;;10.30;;
62798;SDS011;48842;51.046;13.796;2022-07-24T04:45:28;11.30;;;10.20;;
62798;SDS011;48842;51.046;13.796;2022-07-24T04:47:59;12.37;;;10.33;;
62798;SDS011;48842;51.046;13.796;2022-07-24T04:50:24;11.30;;;10.20;;
62798;SDS011;48842;51.046;13.796;2022-07-24T04:52:49;11.47;;;10.47;;
62798;SDS011;48842;51.046;13.796;2022-07-24T04:55:15;13.40;;;9.40;;
62798;SDS011;48842;51.046;13.796;2022-07-24T04:57:40;12.23;;;11.03;;
62798;SDS011;48842;51.046;13.796;2022-07-24T05:00:06;12.03;;;10.63;;
62798;SDS011;48842;51.046;13.796;2022-07-24T05:02:33;17.17;;;10.80;;
62798;SDS011;48842;51.046;13.796;2022-07-24T05:04:58;12.23;;;10.97;;
62798;SDS011;48842;51.046;13.796;2022-07-24T05:07:24;11.93;;;10.80;;
62798;SDS011;48842;51.046;13.796;2022-07-24T05:09:49;12.13;;;11.03;;
62798;SDS011;48842;51.046;13.796;2022-07-24T05:12:14;11.57;;;10.40;;
62798;SDS011;48842;51.046;13.796;2022-07-24T05:14:40;11.37;;;10.37;;
62798;SDS011;48842;51.046;13.796;2022-07-24T05:17:05;11.30;;;10.40;;
62798;SDS011;48842;51.046;13.796;2022-07-24T05:19:30;11.70;;;10.50;;
62798;SDS011;48842;51.046;13.796;2022-07-24T05:21:55;12.60;;;11.50;;
62798;SDS011;48842;51.046;13.796;2022-07-24T05:24:21;12.27;;;11.13;;
62798;SDS011;48842;51.046;13.796;2022-07-24T05:26:46;11.80;;;10.60;;
62798;SDS011;48842;51.046;13.796;2022-07-24T05:29:11;11.33;;;10.30;;
62798;SDS011;48842;51.046;13.796;2022-07-24T05:31:36;12.10;;;10.37;;
62798;SDS011;48842;51.046;13.796;2022-07-24T05:34:01;12.97;;;11.57;;
62798;SDS011;48842;51.046;13.796;2022-07-24T05:36:27;11.50;;;9.97;;
62798;SDS011;48842;51.046;13.796;2022-07-24T05:38:53;17.23;;;10.10;;
62798;SDS011;48842;51.046;13.796;2022-07-24T05:41:18;11.80;;;10.60;;
62798;SDS011;48842;51.046;13.796;2022-07-24T05:43:44;12.10;;;10.33;;
62798;SDS011;48842;51.046;13.796;2022-07-24T05:46:09;11.57;;;10.50;;
62798;SDS011;48842;51.046;13.796;2022-07-24T05:48:34;10.90;;;9.90;;
62798;SDS011;48842;51.046;13.796;2022-07-24T05:50:59;12.90;;;10.23;;
62798;SDS011;48842;51.046;13.796;2022-07-24T05:53:25;12.83;;;10.43;;
62798;SDS011;48842;51.046;13.796;2022-07-24T05:55:50;14.03;;;10.70;;
62798;SDS011;48842;51.046;13.796;2022-07-24T05:58:17;10.97;;;8.90;;
62798;SDS011;48842;51.046;13.796;2022-07-24T06:00:42;10.00;;;9.00;;
62798;SDS011;48842;51.046;13.796;2022-07-24T06:03:08;11.07;;;9.90;;
62798;SDS011;48842;51.046;13.796;2022-07-24T06:05:33;10.10;;;8.90;;
62798;SDS011;48842;51.046;13.796;2022-07-24T06:07:58;12.70;;;9.40;;
62798;SDS011;48842;51.046;13.796;2022-07-24T06:10:24;10.20;;;9.30;;
62798;SDS011;48842;51.046;13.796;2022-07-24T06:12:49;9.93;;;9.03;;
62798;SDS011;48842;51.046;13.796;2022-07-24T06:15:14;9.37;;;8.33;;
62798;SDS011;48842;51.046;13.796;2022-07-24T06:17:39;13.50;;;8.40;;
62798;SDS011;48842;51.046;13.796;2022-07-24T06:20:05;15.30;;;8.23;;
62798;SDS011;48842;51.046;13.796;2022-07-24T06:22:32;22.57;;;8.47;;
62798;SDS011;48842;51.046;13.796;2022-07-24T06:24:57;10.60;;;8.47;;
62798;SDS011;48842;51.046;13.796;2022-07-24T06:27:22;7.83;;;6.67;;
62798;SDS011;48842;51.046;13.796;2022-07-24T06:29:48;8.93;;;7.67;;
62798;SDS011;48842;51.046;13.796;2022-07-24T06:32:13;9.57;;;7.90;;
62798;SDS011;48842;51.046;13.796;2022-07-24T06:34:38;9.00;;;8.20;;
62798;SDS011;48842;51.046;13.796;2022-07-24T06:37:03;9.00;;;6.47;;
62798;SDS011;48842;51.046;13.796;2022-07-24T06:39:29;9.33;;;7.13;;
62798;SDS011;48842;51.046;13.796;2022-07-24T06:41:54;8.80;;;7.87;;
62798;SDS011;48842;51.046;13.796;2022-07-24T06:44:19;8.80;;;8.00;;
62798;SDS011;48842;51.046;13.796;2022-07-24T06:46:44;13.20;;;7.60;;
62798;SDS011;48842;51.046;13.796;2022-07-24T06:49:10;8.20;;;7.10;;
62798;SDS011;48842;51.046;13.796;2022-07-24T06:51:35;7.53;;;6.87;;
62798;SDS011;48842;51.046;13.796;2022-07-24T06:54:00;7.43;;;6.70;;
62798;SDS011;48842;51.046;13.796;2022-07-24T06:56:25;9.30;;;6.20;;
62798;SDS011;48842;51.046;13.796;2022-07-24T06:58:51;6.93;;;6.23;;
62798;SDS011;48842;51.046;13.796;2022-07-24T07:01:16;7.13;;;5.70;;
62798;SDS011;48842;51.046;13.796;2022-07-24T07:03:41;8.37;;;6.00;;
62798;SDS011;48842;51.046;13.796;2022-07-24T07:06:07;7.57;;;4.87;;
62798;SDS011;48842;51.046;13.796;2022-07-24T07:08:32;9.37;;;6.27;;
62798;SDS011;48842;51.046;13.796;2022-07-24T07:10:58;5.37;;;4.87;;
62798;SDS011;48842;51.046;13.796;2022-07-24T07:13:23;7.40;;;5.40;;
62798;SDS011;48842;51.046;13.796;2022-07-24T07:15:48;18.00;;;5.27;;
62798;SDS011;48842;51.046;13.796;2022-07-24T07:18:13;4.80;;;4.43;;
62798;SDS011;48842;51.046;13.796;2022-07-24T07:20:39;7.47;;;4.50;;
62798;SDS011;48842;51.046;13.796;2022-07-24T07:23:05;5.13;;;4.47;;
62798;SDS011;48842;51.046;13.796;2022-07-24T07:25:30;3.70;;;3.40;;
62798;SDS011;48842;51.046;13.796;2022-07-24T07:27:55;13.23;;;3.43;;
62798;SDS011;48842;51.046;13.796;2022-07-24T07:30:20;6.90;;;3.43;;
62798;SDS011;48842;51.046;13.796;2022-07-24T07:32:46;3.80;;;3.10;;
62798;SDS011;48842;51.046;13.796;2022-07-24T07:35:11;3.77;;;3.57;;
62798;SDS011;48842;51.046;13.796;2022-07-24T07:37:37;3.80;;;3.50;;
62798;SDS011;48842;51.046;13.796;2022-07-24T07:40:02;6.23;;;3.97;;
62798;SDS011;48842;51.046;13.796;2022-07-24T07:42:28;2.93;;;2.70;;
62798;SDS011;48842;51.046;13.796;2022-07-24T07:44:53;2.90;;;2.70;;
62798;SDS011;48842;51.046;13.796;2022-07-24T07:47:18;5.77;;;2.40;;
62798;SDS011;48842;51.046;13.796;2022-07-24T07:49:43;6.20;;;2.60;;
62798;SDS011;48842;51.046;13.796;2022-07-24T07:52:09;2.60;;;2.40;;
62798;SDS011;48842;51.046;13.796;2022-07-24T07:54:34;3.10;;;2.20;;
62798;SDS011;48842;51.046;13.796;2022-07-24T07:57:00;2.50;;;2.13;;
62798;SDS011;48842;51.046;13.796;2022-07-24T07:59:25;3.27;;;3.07;;
62798;SDS011;48842;51.046;13.796;2022-07-24T08:01:50;2.53;;;2.43;;
62798;SDS011;48842;51.046;13.796;2022-07-24T08:04:15;3.33;;;2.53;;
62798;SDS011;48842;51.046;13.796;2022-07-24T08:06:41;3.30;;;2.70;;
62798;SDS011;48842;51.046;13.796;2022-07-24T08:09:06;3.13;;;2.47;;
62798;SDS011;48842;51.046;13.796;2022-07-24T08:11:32;2.97;;;2.10;;
62798;SDS011;48842;51.046;13.796;2022-07-24T08:13:57;2.83;;;2.50;;
62798;SDS011;48842;51.046;13.796;2022-07-24T08:16:22;1.87;;;1.77;;
62798;SDS011;48842;51.046;13.796;2022-07-24T08:18:48;2.37;;;2.27;;
62798;SDS011;48842;51.046;13.796;2022-07-24T08:21:13;4.37;;;2.40;;
62798;SDS011;48842;51.046;13.796;2022-07-24T08:23:40;3.10;;;2.23;;
62798;SDS011;48842;51.046;13.796;2022-07-24T08:26:06;3.43;;;2.20;;
62798;SDS011;48842;51.046;13.796;2022-07-24T08:28:31;2.50;;;2.07;;
62798;SDS011;48842;51.046;13.796;2022-07-24T08:30:56;2.27;;;2.17;;
62798;SDS011;48842;51.046;13.796;2022-07-24T08:33:21;2.80;;;2.60;;
62798;SDS011;48842;51.046;13.796;2022-07-24T08:35:47;9.73;;;2.37;;
62798;SDS011;48842;51.046;13.796;2022-07-24T08:38:12;6.00;;;2.30;;
62798;SDS011;48842;51.046;13.796;2022-07-24T08:40:38;3.00;;;2.57;;
62798;SDS011;48842;51.046;13.796;2022-07-24T08:43:04;4.17;;;2.40;;
62798;SDS011;48842;51.046;13.796;2022-07-24T08:45:31;3.00;;;2.10;;
62798;SDS011;48842;51.046;13.796;2022-07-24T08:47:59;2.57;;;2.47;;
62798;SDS011;48842;51.046;13.796;2022-07-24T08:50:27;2.50;;;2.40;;
62798;SDS011;48842;51.046;13.796;2022-07-24T08:52:53;4.77;;;2.70;;
62798;SDS011;48842;51.046;13.796;2022-07-24T08:55:18;3.13;;;2.37;;
62798;SDS011;48842;51.046;13.796;2022-07-24T08:57:44;2.60;;;2.40;;
62798;SDS011;48842;51.046;13.796;2022-07-24T09:00:09;3.00;;;2.33;;
62798;SDS011;48842;51.046;13.796;2022-07-24T09:02:36;2.53;;;2.10;;
62798;SDS011;48842;51.046;13.796;2022-07-24T09:05:02;6.50;;;2.80;;
62798;SDS011;48842;51.046;13.796;2022-07-24T09:07:28;2.63;;;2.40;;
62798;SDS011;48842;51.046;13.796;2022-07-24T09:10:02;5.80;;;2.10;;
62798;SDS011;48842;51.046;13.796;2022-07-24T09:12:31;8.63;;;2.37;;
62798;SDS011;48842;51.046;13.796;2022-07-24T09:14:58;2.73;;;2.13;;
62798;SDS011;48842;51.046;13.796;2022-07-24T09:17:23;3.47;;;2.47;;
62798;SDS011;48842;51.046;13.796;2022-07-24T09:19:50;2.70;;;2.40;;
62798;SDS011;48842;51.046;13.796;2022-07-24T09:22:16;2.80;;;2.60;;
62798;SDS011;48842;51.046;13.796;2022-07-24T09:24:54;3.60;;;2.23;;
62798;SDS011;48842;51.046;13.796;2022-07-24T09:27:28;3.83;;;2.57;;
62798;SDS011;48842;51.046;13.796;2022-07-24T09:29:53;2.70;;;2.50;;
62798;SDS011;48842;51.046;13.796;2022-07-24T09:32:21;2.37;;;2.20;;
62798;SDS011;48842;51.046;13.796;2022-07-24T09:34:50;2.10;;;2.00;;
62798;SDS011;48842;51.046;13.796;2022-07-24T09:37:17;2.50;;;2.20;;
62798;SDS011;48842;51.046;13.796;2022-07-24T09:39:42;5.33;;;2.70;;
62798;SDS011;48842;51.046;13.796;2022-07-24T09:42:08;2.50;;;2.30;;
62798;SDS011;48842;51.046;13.796;2022-07-24T09:44:34;2.40;;;2.00;;
62798;SDS011;48842;51.046;13.796;2022-07-24T09:49:26;2.50;;;2.37;;
62798;SDS011;48842;51.046;13.796;2022-07-24T09:54:33;2.70;;;2.13;;
62798;SDS011;48842;51.046;13.796;2022-07-24T09:57:19;6.60;;;2.33;;
62798;SDS011;48842;51.046;13.796;2022-07-24T09:59:49;6.00;;;2.60;;
62798;SDS011;48842;51.046;13.796;2022-07-24T10:02:17;1.97;;;1.87;;
62798;SDS011;48842;51.046;13.796;2022-07-24T10:04:45;2.40;;;2.20;;
62798;SDS011;48842;51.046;13.796;2022-07-24T10:07:12;2.60;;;2.20;;
62798;SDS011;48842;51.046;13.796;2022-07-24T10:09:43;4.40;;;2.20;;
62798;SDS011;48842;51.046;13.796;2022-07-24T10:12:13;2.47;;;2.33;;
62798;SDS011;48842;51.046;13.796;2022-07-24T10:14:40;3.10;;;2.30;;
62798;SDS011;48842;51.046;13.796;2022-07-24T10:17:07;5.17;;;2.00;;
62798;SDS011;48842;51.046;13.796;2022-07-24T10:19:44;3.47;;;2.20;;
62798;SDS011;48842;51.046;13.796;2022-07-24T10:24:57;2.73;;;2.53;;
62798;SDS011;48842;51.046;13.796;2022-07-24T10:27:33;2.40;;;2.27;;
62798;SDS011;48842;51.046;13.796;2022-07-24T10:30:02;2.70;;;2.50;;
62798;SDS011;48842;51.046;13.796;2022-07-24T10:32:30;2.43;;;2.33;;
62798;SDS011;48842;51.046;13.796;2022-07-24T10:35:08;3.43;;;2.57;;
62798;SDS011;48842;51.046;13.796;2022-07-24T10:45:29;2.17;;;2.07;;
62798;SDS011;48842;51.046;13.796;2022-07-24T10:47:56;3.27;;;2.00;;
62798;SDS011;48842;51.046;13.796;2022-07-24T10:50:21;2.60;;;2.50;;
62798;SDS011;48842;51.046;13.796;2022-07-24T10:52:47;2.40;;;2.10;;
62798;SDS011;48842;51.046;13.796;2022-07-24T10:55:23;2.60;;;2.40;;
62798;SDS011;48842;51.046;13.796;2022-07-24T11:00:32;3.00;;;2.60;;
62798;SDS011;48842;51.046;13.796;2022-07-24T11:03:02;2.87;;;2.60;;
62798;SDS011;48842;51.046;13.796;2022-07-24T11:05:37;2.40;;;2.20;;
62798;SDS011;48842;51.046;13.796;2022-07-24T11:10:44;5.47;;;2.20;;
62798;SDS011;48842;51.046;13.796;2022-07-24T11:13:38;2.87;;;2.73;;
62798;SDS011;48842;51.046;13.796;2022-07-24T11:21:11;2.93;;;2.67;;
62798;SDS011;48842;51.046;13.796;2022-07-24T11:23:36;3.07;;;2.23;;
62798;SDS011;48842;51.046;13.796;2022-07-24T11:31:58;2.60;;;2.50;;
62798;SDS011;48842;51.046;13.796;2022-07-24T11:34:25;2.70;;;2.17;;
62798;SDS011;48842;51.046;13.796;2022-07-24T11:36:52;3.63;;;2.57;;
62798;SDS011;48842;51.046;13.796;2022-07-24T11:39:19;2.50;;;2.30;;
62798;SDS011;48842;51.046;13.796;2022-07-24T11:41:46;2.80;;;2.47;;
62798;SDS011;48842;51.046;13.796;2022-07-24T11:44:12;2.50;;;2.30;;
62798;SDS011;48842;51.046;13.796;2022-07-24T11:46:39;2.40;;;2.30;;
62798;SDS011;48842;51.046;13.796;2022-07-24T11:49:07;3.93;;;2.40;;
62798;SDS011;48842;51.046;13.796;2022-07-24T11:51:41;2.40;;;2.20;;
62798;SDS011;48842;51.046;13.796;2022-07-24T11:54:07;2.60;;;2.40;;
62798;SDS011;48842;51.046;13.796;2022-07-24T11:56:32;2.87;;;2.67;;
62798;SDS011;48842;51.046;13.796;2022-07-24T11:58:58;2.93;;;2.70;;
62798;SDS011;48842;51.046;13.796;2022-07-24T12:01:24;2.43;;;2.33;;
62798;SDS011;48842;51.046;13.796;2022-07-24T12:03:50;3.03;;;2.80;;
62798;SDS011;48842;51.046;13.796;2022-07-24T12:06:21;3.10;;;2.50;;
62798;SDS011;48842;51.046;13.796;2022-07-24T12:08:46;7.90;;;2.40;;
62798;SDS011;48842;51.046;13.796;2022-07-24T12:11:14;3.97;;;2.30;;
62798;SDS011;48842;51.046;13.796;2022-07-24T12:13:46;3.60;;;2.53;;
62798;SDS011;48842;51.046;13.796;2022-07-24T12:16:14;2.50;;;2.30;;
62798;SDS011;48842;51.046;13.796;2022-07-24T12:18:48;2.57;;;2.40;;
62798;SDS011;48842;51.046;13.796;2022-07-24T12:21:14;3.30;;;2.43;;
62798;SDS011;48842;51.046;13.796;2022-07-24T12:23:40;4.10;;;2.43;;
62798;SDS011;48842;51.046;13.796;2022-07-24T12:26:05;2.30;;;2.20;;
62798;SDS011;48842;51.046;13.796;2022-07-24T12:28:31;4.67;;;2.57;;
62798;SDS011;48842;51.046;13.796;2022-07-24T12:30:57;2.20;;;2.10;;
62798;SDS011;48842;51.046;13.796;2022-07-24T12:33:25;3.57;;;2.13;;
62798;SDS011;48842;51.046;13.796;2022-07-24T12:35:59;2.60;;;2.27;;
62798;SDS011;48842;51.046;13.796;2022-07-24T12:38:40;4.50;;;2.10;;
62798;SDS011;48842;51.046;13.796;2022-07-24T12:41:08;3.17;;;2.80;;
62798;SDS011;48842;51.046;13.796;2022-07-24T12:43:48;2.70;;;2.47;;
62798;SDS011;48842;51.046;13.796;2022-07-24T12:46:15;2.50;;;2.40;;
62798;SDS011;48842;51.046;13.796;2022-07-24T12:48:54;2.30;;;2.07;;
62798;SDS011;48842;51.046;13.796;2022-07-24T12:51:21;5.93;;;2.50;;
62798;SDS011;48842;51.046;13.796;2022-07-24T12:53:46;3.77;;;2.40;;
62798;SDS011;48842;51.046;13.796;2022-07-24T12:56:18;3.67;;;2.30;;
62798;SDS011;48842;51.046;13.796;2022-07-24T12:59:00;2.77;;;2.57;;
62798;SDS011;48842;51.046;13.796;2022-07-24T13:01:48;3.13;;;2.07;;
62798;SDS011;48842;51.046;13.796;2022-07-24T13:04:15;2.27;;;2.07;;
62798;SDS011;48842;51.046;13.796;2022-07-24T13:06:45;2.43;;;2.23;;
62798;SDS011;48842;51.046;13.796;2022-07-24T13:09:12;3.93;;;2.00;;
62798;SDS011;48842;51.046;13.796;2022-07-24T13:11:40;3.20;;;2.20;;
62798;SDS011;48842;51.046;13.796;2022-07-24T13:14:06;3.03;;;2.70;;
62798;SDS011;48842;51.046;13.796;2022-07-24T13:16:34;2.27;;;2.07;;
62798;SDS011;48842;51.046;13.796;2022-07-24T13:19:00;2.83;;;2.50;;
62798;SDS011;48842;51.046;13.796;2022-07-24T13:21:27;5.23;;;2.23;;
62798;SDS011;48842;51.046;13.796;2022-07-24T13:23:52;3.00;;;2.50;;
62798;SDS011;48842;51.046;13.796;2022-07-24T13:26:18;2.60;;;2.40;;
62798;SDS011;48842;51.046;13.796;2022-07-24T13:28:44;1.80;;;1.70;;
62798;SDS011;48842;51.046;13.796;2022-07-24T13:31:09;2.67;;;2.57;;
62798;SDS011;48842;51.046;13.796;2022-07-24T13:33:34;3.00;;;2.47;;
62798;SDS011;48842;51.046;13.796;2022-07-24T13:35:59;2.17;;;2.00;;
62798;SDS011;48842;51.046;13.796;2022-07-24T13:38:25;4.97;;;2.00;;
62798;SDS011;48842;51.046;13.796;2022-07-24T13:40:50;3.13;;;2.00;;
62798;SDS011;48842;51.046;13.796;2022-07-24T13:43:15;6.50;;;2.00;;
62798;SDS011;48842;51.046;13.796;2022-07-24T13:45:41;2.60;;;2.50;;
62798;SDS011;48842;51.046;13.796;2022-07-24T13:48:06;2.27;;;2.17;;
62798;SDS011;48842;51.046;13.796;2022-07-24T13:50:31;1.90;;;1.80;;
62798;SDS011;48842;51.046;13.796;2022-07-24T13:52:56;1.93;;;1.73;;
62798;SDS011;48842;51.046;13.796;2022-07-24T13:55:22;2.27;;;2.17;;
62798;SDS011;48842;51.046;13.796;2022-07-24T13:57:47;2.90;;;2.60;;
62798;SDS011;48842;51.046;13.796;2022-07-24T14:00:12;2.50;;;2.07;;
62798;SDS011;48842;51.046;13.796;2022-07-24T14:02:38;2.87;;;2.40;;
62798;SDS011;48842;51.046;13.796;2022-07-24T14:05:04;2.07;;;1.97;;
62798;SDS011;48842;51.046;13.796;2022-07-24T14:07:30;2.70;;;2.47;;
62798;SDS011;48842;51.046;13.796;2022-07-24T14:09:55;3.70;;;2.07;;
62798;SDS011;48842;51.046;13.796;2022-07-24T14:12:20;2.80;;;2.20;;
62798;SDS011;48842;51.046;13.796;2022-07-24T14:14:46;2.80;;;1.83;;
62798;SDS011;48842;51.046;13.796;2022-07-24T14:17:11;1.90;;;1.80;;
62798;SDS011;48842;51.046;13.796;2022-07-24T14:19:36;3.20;;;2.07;;
62798;SDS011;48842;51.046;13.796;2022-07-24T14:22:02;2.20;;;2.07;;
62798;SDS011;48842;51.046;13.796;2022-07-24T14:24:30;2.53;;;1.97;;
62798;SDS011;48842;51.046;13.796;2022-07-24T14:26:55;2.53;;;2.17;;
62798;SDS011;48842;51.046;13.796;2022-07-24T14:29:23;2.20;;;2.00;;
62798;SDS011;48842;51.046;13.796;2022-07-24T14:31:49;3.13;;;2.00;;
62798;SDS011;48842;51.046;13.796;2022-07-24T14:34:14;1.80;;;1.70;;
62798;SDS011;48842;51.046;13.796;2022-07-24T14:36:40;3.67;;;1.90;;
62798;SDS011;48842;51.046;13.796;2022-07-24T14:39:06;2.60;;;1.90;;
62798;SDS011;48842;51.046;13.796;2022-07-24T14:41:31;2.50;;;1.60;;
62798;SDS011;48842;51.046;13.796;2022-07-24T14:43:57;8.80;;;2.50;;
62798;SDS011;48842;51.046;13.796;2022-07-24T14:46:22;3.40;;;2.20;;
62798;SDS011;48842;51.046;13.796;2022-07-24T14:48:48;1.90;;;1.80;;
62798;SDS011;48842;51.046;13.796;2022-07-24T14:51:13;2.53;;;1.93;;
62798;SDS011;48842;51.046;13.796;2022-07-24T14:53:38;1.77;;;1.53;;